sensor_id;sensor_type;location;lat;lon;timestamp;temperature;humidity
7648;DHT22;3866;48.020;11.720;2023-02-28T00:00:31;-3.30;99.90
7648;DHT22;3866;48.020;11.720;2023-02-28T00:02:59;-3.30;99.90
7648;DHT22;3866;48.020;11.720;2023-02-28T00:05:27;-3.40;99.90
7648;DHT22;3866;48.020;11.720;2023-02-28T00:07:55;-3.30;99.90
7648;DHT22;3866;48.020;11.720;2023-02-28T00:10:25;-3.40;99.90
7648;DHT22;3866;48.020;11.720;2023-02-28T00:12:53;-3.30;99.90
7648;DHT22;3866;48.020;11.720;2023-02-28T00:15:22;-3.10;99.90
7648;DHT22;3866;48.020;11.720;2023-02-28T00:17:51;-3.40;99.90
7648;DHT22;3866;48.020;11.720;2023-02-28T00:20:18;-3.40;99.90
7648;DHT22;3866;48.020;11.720;2023-02-28T00:22:47;-3.40;99.90
7648;DHT22;3866;48.020;11.720;2023-02-28T00:25:17;-3.30;99.90
7648;DHT22;3866;48.020;11.720;2023-02-28T00:27:44;-3.30;99.90
7648;DHT22;3866;48.020;11.720;2023-02-28T00:30:13;-3.30;99.90
7648;DHT22;3866;48.020;11.720;2023-02-28T00:32:41;-3.40;99.90
7648;DHT22;3866;48.020;11.720;2023-02-28T00:35:10;-3.50;99.90
7648;DHT22;3866;48.020;11.720;2023-02-28T00:37:37;-3.70;99.90
7648;DHT22;3866;48.020;11.720;2023-02-28T00:40:05;-3.70;99.90
7648;DHT22;3866;48.020;11.720;2023-02-28T00:42:33;-3.70;99.90
7648;DHT22;3866;48.020;11.720;2023-02-28T00:45:00;-3.80;99.90
7648;DHT22;3866;48.020;11.720;2023-02-28T00:47:29;-3.80;99.90
7648;DHT22;3866;48.020;11.720;2023-02-28T00:49:55;-3.80;99.90
7648;DHT22;3866;48.020;11.720;2023-02-28T00:52:24;-3.80;99.90
7648;DHT22;3866;48.020;11.720;2023-02-28T00:54:51;-3.80;99.90
7648;DHT22;3866;48.020;11.720;2023-02-28T00:57:18;-3.80;99.90
7648;DHT22;3866;48.020;11.720;2023-02-28T00:59:44;-3.90;99.90
7648;DHT22;3866;48.020;11.720;2023-02-28T01:02:11;-4.00;99.90
7648;DHT22;3866;48.020;11.720;2023-02-28T01:04:38;-4.00;99.90
7648;DHT22;3866;48.020;11.720;2023-02-28T01:07:05;-3.90;99.90
7648;DHT22;3866;48.020;11.720;2023-02-28T01:09:33;-3.90;99.90
7648;DHT22;3866;48.020;11.720;2023-02-28T01:12:00;-3.90;99.90
7648;DHT22;3866;48.020;11.720;2023-02-28T01:14:27;-3.90;99.90
7648;DHT22;3866;48.020;11.720;2023-02-28T01:16:54;-3.90;99.90
7648;DHT22;3866;48.020;11.720;2023-02-28T01:19:21;-3.90;99.90
7648;DHT22;3866;48.020;11.720;2023-02-28T01:21:48;-3.90;99.90
7648;DHT22;3866;48.020;11.720;2023-02-28T01:24:15;-4.00;99.90
7648;DHT22;3866;48.020;11.720;2023-02-28T01:26:43;-4.00;99.90
7648;DHT22;3866;48.020;11.720;2023-02-28T01:29:10;-4.00;99.90
7648;DHT22;3866;48.020;11.720;2023-02-28T01:31:37;-4.10;99.90
7648;DHT22;3866;48.020;11.720;2023-02-28T01:34:04;-4.10;99.90
7648;DHT22;3866;48.020;11.720;2023-02-28T01:36:31;-4.20;99.90
7648;DHT22;3866;48.020;11.720;2023-02-28T01:38:58;-4.20;99.90
7648;DHT22;3866;48.020;11.720;2023-02-28T01:41:26;-4.40;99.90
7648;DHT22;3866;48.020;11.720;2023-02-28T01:43:58;-4.30;99.90
7648;DHT22;3866;48.020;11.720;2023-02-28T01:46:25;-4.40;99.90
7648;DHT22;3866;48.020;11.720;2023-02-28T01:48:54;-4.40;99.90
7648;DHT22;3866;48.020;11.720;2023-02-28T01:51:28;-4.50;99.90
7648;DHT22;3866;48.020;11.720;2023-02-28T01:53:59;-4.40;99.90
7648;DHT22;3866;48.020;11.720;2023-02-28T01:56:30;-4.50;99.90
7648;DHT22;3866;48.020;11.720;2023-02-28T01:59:00;-4.50;99.90
7648;DHT22;3866;48.020;11.720;2023-02-28T02:01:29;-4.40;99.90
7648;DHT22;3866;48.020;11.720;2023-02-28T02:04:00;-4.50;99.90
7648;DHT22;3866;48.020;11.720;2023-02-28T02:06:34;-4.50;99.90
7648;DHT22;3866;48.020;11.720;2023-02-28T02:09:03;-4.40;99.90
7648;DHT22;3866;48.020;11.720;2023-02-28T02:11:30;-4.50;99.90
7648;DHT22;3866;48.020;11.720;2023-02-28T02:17:18;-4.70;99.90
7648;DHT22;3866;48.020;11.720;2023-02-28T02:20:16;-4.70;99.90
7648;DHT22;3866;48.020;11.720;2023-02-28T02:23:14;-4.70;99.90
7648;DHT22;3866;48.020;11.720;2023-02-28T02:25:45;-4.70;99.90
7648;DHT22;3866;48.020;11.720;2023-02-28T02:31:36;-4.80;99.90
7648;DHT22;3866;48.020;11.720;2023-02-28T02:34:28;-4.80;99.90
7648;DHT22;3866;48.020;11.720;2023-02-28T02:37:04;-4.80;99.90
7648;DHT22;3866;48.020;11.720;2023-02-28T02:39:40;-4.80;99.90
7648;DHT22;3866;48.020;11.720;2023-02-28T02:42:13;-4.80;99.90
7648;DHT22;3866;48.020;11.720;2023-02-28T02:44:46;-4.70;99.90
7648;DHT22;3866;48.020;11.720;2023-02-28T02:47:16;-4.70;99.90
7648;DHT22;3866;48.020;11.720;2023-02-28T02:49:48;-4.70;99.90
7648;DHT22;3866;48.020;11.720;2023-02-28T02:52:20;-4.80;99.90
7648;DHT22;3866;48.020;11.720;2023-02-28T02:54:49;-4.80;99.90
7648;DHT22;3866;48.020;11.720;2023-02-28T02:57:23;-4.70;99.90
7648;DHT22;3866;48.020;11.720;2023-02-28T02:59:52;-4.70;99.90
7648;DHT22;3866;48.020;11.720;2023-02-28T03:02:21;-4.40;99.90
7648;DHT22;3866;48.020;11.720;2023-02-28T03:04:52;-4.30;99.90
7648;DHT22;3866;48.020;11.720;2023-02-28T03:07:20;-4.30;99.90
7648;DHT22;3866;48.020;11.720;2023-02-28T03:09:51;-4.40;99.90
7648;DHT22;3866;48.020;11.720;2023-02-28T03:12:19;-4.50;99.90
7648;DHT22;3866;48.020;11.720;2023-02-28T03:14:56;-4.60;99.90
7648;DHT22;3866;48.020;11.720;2023-02-28T03:17:37;-4.70;99.90
7648;DHT22;3866;48.020;11.720;2023-02-28T03:20:15;-4.70;99.90
7648;DHT22;3866;48.020;11.720;2023-02-28T03:22:51;-4.90;99.90
7648;DHT22;3866;48.020;11.720;2023-02-28T03:25:23;-5.00;99.90
7648;DHT22;3866;48.020;11.720;2023-02-28T03:27:59;-5.00;99.90
7648;DHT22;3866;48.020;11.720;2023-02-28T03:30:34;-4.90;99.90
7648;DHT22;3866;48.020;11.720;2023-02-28T03:33:06;-4.70;99.90
7648;DHT22;3866;48.020;11.720;2023-02-28T03:35:38;-4.50;99.90
7648;DHT22;3866;48.020;11.720;2023-02-28T03:38:10;-4.40;99.90
7648;DHT22;3866;48.020;11.720;2023-02-28T03:40:44;-4.60;99.90
7648;DHT22;3866;48.020;11.720;2023-02-28T03:43:17;-4.40;99.90
7648;DHT22;3866;48.020;11.720;2023-02-28T03:45:45;-4.20;99.90
7648;DHT22;3866;48.020;11.720;2023-02-28T03:48:19;-3.90;99.90
7648;DHT22;3866;48.020;11.720;2023-02-28T03:50:53;-4.20;99.90
7648;DHT22;3866;48.020;11.720;2023-02-28T03:53:24;-4.20;99.90
7648;DHT22;3866;48.020;11.720;2023-02-28T03:55:56;-4.30;99.90
7648;DHT22;3866;48.020;11.720;2023-02-28T03:58:28;-4.30;99.90
7648;DHT22;3866;48.020;11.720;2023-02-28T04:01:02;-4.10;99.90
7648;DHT22;3866;48.020;11.720;2023-02-28T04:03:34;-4.00;99.90
7648;DHT22;3866;48.020;11.720;2023-02-28T04:06:03;-4.10;99.90
7648;DHT22;3866;48.020;11.720;2023-02-28T04:08:30;-4.40;99.90
7648;DHT22;3866;48.020;11.720;2023-02-28T04:11:01;-4.50;99.90
7648;DHT22;3866;48.020;11.720;2023-02-28T04:13:30;-4.70;99.90
7648;DHT22;3866;48.020;11.720;2023-02-28T04:15:57;-4.90;99.90
7648;DHT22;3866;48.020;11.720;2023-02-28T04:18:24;-5.00;99.90
7648;DHT22;3866;48.020;11.720;2023-02-28T04:20:51;-4.80;99.90
7648;DHT22;3866;48.020;11.720;2023-02-28T04:23:19;-4.60;99.90
7648;DHT22;3866;48.020;11.720;2023-02-28T04:25:46;-4.50;99.90
7648;DHT22;3866;48.020;11.720;2023-02-28T04:28:13;-4.40;99.90
7648;DHT22;3866;48.020;11.720;2023-02-28T04:30:39;-4.50;99.90
7648;DHT22;3866;48.020;11.720;2023-02-28T04:33:06;-4.50;99.90
7648;DHT22;3866;48.020;11.720;2023-02-28T04:35:33;-4.30;99.90
7648;DHT22;3866;48.020;11.720;2023-02-28T04:38:00;-4.40;99.90
7648;DHT22;3866;48.020;11.720;2023-02-28T04:40:28;-4.50;99.90
7648;DHT22;3866;48.020;11.720;2023-02-28T04:42:55;-4.70;99.90
7648;DHT22;3866;48.020;11.720;2023-02-28T04:45:22;-4.50;99.90
7648;DHT22;3866;48.020;11.720;2023-02-28T04:47:49;-4.40;99.90
7648;DHT22;3866;48.020;11.720;2023-02-28T04:50:16;-4.30;99.90
7648;DHT22;3866;48.020;11.720;2023-02-28T04:52:43;-4.30;99.90
7648;DHT22;3866;48.020;11.720;2023-02-28T04:55:10;-4.60;99.90
7648;DHT22;3866;48.020;11.720;2023-02-28T04:57:38;-4.60;99.90
7648;DHT22;3866;48.020;11.720;2023-02-28T05:00:09;-4.50;99.90
7648;DHT22;3866;48.020;11.720;2023-02-28T05:02:37;-4.70;99.90
7648;DHT22;3866;48.020;11.720;2023-02-28T05:05:04;-4.60;99.90
7648;DHT22;3866;48.020;11.720;2023-02-28T05:07:31;-4.50;99.90
7648;DHT22;3866;48.020;11.720;2023-02-28T05:09:58;-4.50;99.90
7648;DHT22;3866;48.020;11.720;2023-02-28T05:12:25;-4.40;99.90
7648;DHT22;3866;48.020;11.720;2023-02-28T05:14:53;-4.30;99.90
7648;DHT22;3866;48.020;11.720;2023-02-28T05:17:20;-4.30;99.90
7648;DHT22;3866;48.020;11.720;2023-02-28T05:19:47;-4.20;99.90
7648;DHT22;3866;48.020;11.720;2023-02-28T05:22:14;-4.30;99.90
7648;DHT22;3866;48.020;11.720;2023-02-28T05:24:43;-4.30;99.90
7648;DHT22;3866;48.020;11.720;2023-02-28T05:27:10;-4.30;99.90
7648;DHT22;3866;48.020;11.720;2023-02-28T05:29:39;-4.40;99.90
7648;DHT22;3866;48.020;11.720;2023-02-28T05:32:11;-4.30;99.90
7648;DHT22;3866;48.020;11.720;2023-02-28T05:34:38;-4.30;99.90
7648;DHT22;3866;48.020;11.720;2023-02-28T05:37:06;-4.00;99.90
7648;DHT22;3866;48.020;11.720;2023-02-28T05:39:33;-3.80;99.90
7648;DHT22;3866;48.020;11.720;2023-02-28T05:42:00;-3.90;99.90
7648;DHT22;3866;48.020;11.720;2023-02-28T05:44:27;-3.50;99.90
7648;DHT22;3866;48.020;11.720;2023-02-28T05:46:54;-3.70;99.90
7648;DHT22;3866;48.020;11.720;2023-02-28T05:49:22;-3.60;99.90
7648;DHT22;3866;48.020;11.720;2023-02-28T05:51:49;-3.90;99.90
7648;DHT22;3866;48.020;11.720;2023-02-28T05:54:16;-3.90;99.90
7648;DHT22;3866;48.020;11.720;2023-02-28T05:56:43;-3.70;99.90
7648;DHT22;3866;48.020;11.720;2023-02-28T05:59:11;-3.90;99.90
7648;DHT22;3866;48.020;11.720;2023-02-28T06:01:40;-3.80;99.90
7648;DHT22;3866;48.020;11.720;2023-02-28T06:04:09;-3.70;99.90
7648;DHT22;3866;48.020;11.720;2023-02-28T06:06:37;-3.70;99.90
7648;DHT22;3866;48.020;11.720;2023-02-28T06:09:05;-3.60;99.90
7648;DHT22;3866;48.020;11.720;2023-02-28T06:11:32;-3.60;99.90
7648;DHT22;3866;48.020;11.720;2023-02-28T06:13:59;-3.50;99.90
7648;DHT22;3866;48.020;11.720;2023-02-28T06:16:27;-3.40;99.90
7648;DHT22;3866;48.020;11.720;2023-02-28T06:18:56;-3.50;99.90
7648;DHT22;3866;48.020;11.720;2023-02-28T06:21:23;-3.30;99.90
7648;DHT22;3866;48.020;11.720;2023-02-28T06:23:51;-3.40;99.90
7648;DHT22;3866;48.020;11.720;2023-02-28T06:26:19;-3.50;99.90
7648;DHT22;3866;48.020;11.720;2023-02-28T06:28:46;-3.30;99.90
7648;DHT22;3866;48.020;11.720;2023-02-28T06:31:15;-3.20;99.90
7648;DHT22;3866;48.020;11.720;2023-02-28T06:33:43;-3.30;99.90
7648;DHT22;3866;48.020;11.720;2023-02-28T06:36:11;-3.30;99.90
7648;DHT22;3866;48.020;11.720;2023-02-28T06:38:39;-3.20;99.90
7648;DHT22;3866;48.020;11.720;2023-02-28T06:41:08;-3.10;99.90
7648;DHT22;3866;48.020;11.720;2023-02-28T06:43:41;-3.20;99.90
7648;DHT22;3866;48.020;11.720;2023-02-28T06:46:11;-3.20;99.90
7648;DHT22;3866;48.020;11.720;2023-02-28T06:48:39;-3.30;99.90
7648;DHT22;3866;48.020;11.720;2023-02-28T06:51:07;-3.30;99.90
7648;DHT22;3866;48.020;11.720;2023-02-28T06:53:35;-3.20;99.90
7648;DHT22;3866;48.020;11.720;2023-02-28T06:56:04;-3.30;99.90
7648;DHT22;3866;48.020;11.720;2023-02-28T06:58:33;-3.10;99.90
7648;DHT22;3866;48.020;11.720;2023-02-28T07:01:01;-3.10;99.90
7648;DHT22;3866;48.020;11.720;2023-02-28T07:03:28;-3.10;99.90
7648;DHT22;3866;48.020;11.720;2023-02-28T07:05:55;-3.10;99.90
7648;DHT22;3866;48.020;11.720;2023-02-28T07:08:22;-3.10;99.90
7648;DHT22;3866;48.020;11.720;2023-02-28T07:10:52;-2.90;99.90
7648;DHT22;3866;48.020;11.720;2023-02-28T07:13:19;-2.90;99.90
7648;DHT22;3866;48.020;11.720;2023-02-28T07:15:54;-2.90;99.90
7648;DHT22;3866;48.020;11.720;2023-02-28T07:18:22;-3.10;99.90
7648;DHT22;3866;48.020;11.720;2023-02-28T07:20:49;-3.00;99.90
7648;DHT22;3866;48.020;11.720;2023-02-28T07:23:16;-3.00;99.90
7648;DHT22;3866;48.020;11.720;2023-02-28T07:25:43;-2.90;99.90
7648;DHT22;3866;48.020;11.720;2023-02-28T07:28:11;-3.00;99.90
7648;DHT22;3866;48.020;11.720;2023-02-28T07:30:38;-2.90;99.90
7648;DHT22;3866;48.020;11.720;2023-02-28T07:33:06;-2.80;99.90
7648;DHT22;3866;48.020;11.720;2023-02-28T07:35:34;-2.80;99.90
7648;DHT22;3866;48.020;11.720;2023-02-28T07:38:01;-2.90;99.90
7648;DHT22;3866;48.020;11.720;2023-02-28T07:40:28;-2.80;99.90
7648;DHT22;3866;48.020;11.720;2023-02-28T07:42:55;-2.80;99.90
7648;DHT22;3866;48.020;11.720;2023-02-28T07:45:22;-2.90;99.90
7648;DHT22;3866;48.020;11.720;2023-02-28T07:47:49;-2.90;99.90
7648;DHT22;3866;48.020;11.720;2023-02-28T07:50:18;-2.80;99.90
7648;DHT22;3866;48.020;11.720;2023-02-28T07:52:45;-2.80;99.90
7648;DHT22;3866;48.020;11.720;2023-02-28T07:55:12;-3.00;99.90
7648;DHT22;3866;48.020;11.720;2023-02-28T07:57:39;-3.00;99.90
7648;DHT22;3866;48.020;11.720;2023-02-28T08:00:09;-3.10;99.90
7648;DHT22;3866;48.020;11.720;2023-02-28T08:02:38;-3.10;99.90
7648;DHT22;3866;48.020;11.720;2023-02-28T08:05:05;-3.00;99.90
7648;DHT22;3866;48.020;11.720;2023-02-28T08:07:34;-2.90;99.90
7648;DHT22;3866;48.020;11.720;2023-02-28T08:10:01;-2.90;99.90
7648;DHT22;3866;48.020;11.720;2023-02-28T08:12:28;-2.80;99.90
7648;DHT22;3866;48.020;11.720;2023-02-28T08:14:55;-2.90;99.90
7648;DHT22;3866;48.020;11.720;2023-02-28T08:17:22;-2.90;99.90
7648;DHT22;3866;48.020;11.720;2023-02-28T08:19:49;-2.80;99.90
7648;DHT22;3866;48.020;11.720;2023-02-28T08:22:16;-2.80;99.90
7648;DHT22;3866;48.020;11.720;2023-02-28T08:24:44;-2.70;99.90
7648;DHT22;3866;48.020;11.720;2023-02-28T08:27:11;-2.50;99.90
7648;DHT22;3866;48.020;11.720;2023-02-28T08:29:39;-2.40;99.90
7648;DHT22;3866;48.020;11.720;2023-02-28T08:32:06;-2.40;99.90
7648;DHT22;3866;48.020;11.720;2023-02-28T08:34:33;-2.40;99.90
7648;DHT22;3866;48.020;11.720;2023-02-28T08:37:00;-2.50;99.90
7648;DHT22;3866;48.020;11.720;2023-02-28T08:39:27;-2.60;99.90
7648;DHT22;3866;48.020;11.720;2023-02-28T08:41:55;-2.50;99.90
7648;DHT22;3866;48.020;11.720;2023-02-28T08:44:22;-2.60;99.90
7648;DHT22;3866;48.020;11.720;2023-02-28T08:46:49;-2.50;99.90
7648;DHT22;3866;48.020;11.720;2023-02-28T08:49:16;-2.30;99.90
7648;DHT22;3866;48.020;11.720;2023-02-28T08:51:44;-2.10;99.90
7648;DHT22;3866;48.020;11.720;2023-02-28T08:54:11;-2.00;99.90
7648;DHT22;3866;48.020;11.720;2023-02-28T08:56:38;-2.00;99.90
7648;DHT22;3866;48.020;11.720;2023-02-28T08:59:09;-2.10;99.90
7648;DHT22;3866;48.020;11.720;2023-02-28T09:01:36;-2.20;99.90
7648;DHT22;3866;48.020;11.720;2023-02-28T09:04:03;-2.20;99.90
7648;DHT22;3866;48.020;11.720;2023-02-28T09:06:32;-2.10;99.90
7648;DHT22;3866;48.020;11.720;2023-02-28T09:09:00;-2.10;99.90
7648;DHT22;3866;48.020;11.720;2023-02-28T09:11:27;-2.10;99.90
7648;DHT22;3866;48.020;11.720;2023-02-28T09:13:55;-1.90;99.90
7648;DHT22;3866;48.020;11.720;2023-02-28T09:16:26;-1.80;99.90
7648;DHT22;3866;48.020;11.720;2023-02-28T09:18:53;-1.80;99.90
7648;DHT22;3866;48.020;11.720;2023-02-28T09:21:20;-1.90;99.90
7648;DHT22;3866;48.020;11.720;2023-02-28T09:23:48;-1.80;99.90
7648;DHT22;3866;48.020;11.720;2023-02-28T09:26:17;-1.70;99.90
7648;DHT22;3866;48.020;11.720;2023-02-28T09:28:45;-1.60;99.90
7648;DHT22;3866;48.020;11.720;2023-02-28T09:31:13;-1.50;99.90
7648;DHT22;3866;48.020;11.720;2023-02-28T09:33:41;-1.70;99.90
7648;DHT22;3866;48.020;11.720;2023-02-28T09:36:08;-1.80;99.90
7648;DHT22;3866;48.020;11.720;2023-02-28T09:38:35;-1.70;99.90
7648;DHT22;3866;48.020;11.720;2023-02-28T09:41:04;-1.60;99.90
7648;DHT22;3866;48.020;11.720;2023-02-28T09:43:38;-1.60;99.90
7648;DHT22;3866;48.020;11.720;2023-02-28T09:46:12;-1.60;99.90
7648;DHT22;3866;48.020;11.720;2023-02-28T09:48:45;-1.50;99.90
7648;DHT22;3866;48.020;11.720;2023-02-28T09:51:26;-1.70;99.90
7648;DHT22;3866;48.020;11.720;2023-02-28T09:53:54;-1.70;99.90
7648;DHT22;3866;48.020;11.720;2023-02-28T09:56:24;-1.40;99.90
7648;DHT22;3866;48.020;11.720;2023-02-28T09:58:55;-1.50;99.90
7648;DHT22;3866;48.020;11.720;2023-02-28T10:01:27;-1.30;99.90
7648;DHT22;3866;48.020;11.720;2023-02-28T10:04:03;-1.40;99.90
7648;DHT22;3866;48.020;11.720;2023-02-28T10:06:36;-1.30;99.90
7648;DHT22;3866;48.020;11.720;2023-02-28T10:09:10;-1.20;99.90
7648;DHT22;3866;48.020;11.720;2023-02-28T10:11:40;-1.10;99.90
7648;DHT22;3866;48.020;11.720;2023-02-28T10:14:13;-1.40;99.90
7648;DHT22;3866;48.020;11.720;2023-02-28T10:16:44;-1.20;99.90
7648;DHT22;3866;48.020;11.720;2023-02-28T10:19:22;-1.20;99.90
7648;DHT22;3866;48.020;11.720;2023-02-28T10:21:56;-1.30;99.90
7648;DHT22;3866;48.020;11.720;2023-02-28T10:24:29;-1.20;99.90
7648;DHT22;3866;48.020;11.720;2023-02-28T10:27:00;-1.30;99.90
7648;DHT22;3866;48.020;11.720;2023-02-28T10:29:28;-1.20;99.90
7648;DHT22;3866;48.020;11.720;2023-02-28T10:32:01;-1.20;99.90
7648;DHT22;3866;48.020;11.720;2023-02-28T10:34:30;-1.20;99.90
7648;DHT22;3866;48.020;11.720;2023-02-28T10:36:58;-1.30;99.90
7648;DHT22;3866;48.020;11.720;2023-02-28T10:39:41;-1.20;99.90
7648;DHT22;3866;48.020;11.720;2023-02-28T10:42:29;-1.40;99.90
7648;DHT22;3866;48.020;11.720;2023-02-28T10:45:10;-1.20;99.90
7648;DHT22;3866;48.020;11.720;2023-02-28T10:47:51;-1.20;99.90
7648;DHT22;3866;48.020;11.720;2023-02-28T10:50:34;-1.20;99.90
7648;DHT22;3866;48.020;11.720;2023-02-28T10:53:22;-1.00;99.90
7648;DHT22;3866;48.020;11.720;2023-02-28T10:55:57;-1.10;99.90
7648;DHT22;3866;48.020;11.720;2023-02-28T10:58:27;-0.90;99.90
7648;DHT22;3866;48.020;11.720;2023-02-28T11:00:54;-1.00;99.90
7648;DHT22;3866;48.020;11.720;2023-02-28T11:03:32;-0.90;99.90
7648;DHT22;3866;48.020;11.720;2023-02-28T11:06:06;-0.70;99.90
7648;DHT22;3866;48.020;11.720;2023-02-28T11:08:34;-0.60;99.90
7648;DHT22;3866;48.020;11.720;2023-02-28T11:11:10;-0.60;99.90
7648;DHT22;3866;48.020;11.720;2023-02-28T11:13:37;-0.40;99.90
7648;DHT22;3866;48.020;11.720;2023-02-28T11:16:06;-0.50;99.90
7648;DHT22;3866;48.020;11.720;2023-02-28T11:18:40;-0.40;99.90
7648;DHT22;3866;48.020;11.720;2023-02-28T11:21:09;-0.60;99.90
7648;DHT22;3866;48.020;11.720;2023-02-28T11:23:40;-0.50;99.90
7648;DHT22;3866;48.020;11.720;2023-02-28T11:26:08;-0.60;99.90
7648;DHT22;3866;48.020;11.720;2023-02-28T11:28:37;-0.40;99.90
7648;DHT22;3866;48.020;11.720;2023-02-28T11:31:15;-0.20;99.90
7648;DHT22;3866;48.020;11.720;2023-02-28T11:33:47;-0.50;99.90
7648;DHT22;3866;48.020;11.720;2023-02-28T11:36:23;-0.20;99.90
7648;DHT22;3866;48.020;11.720;2023-02-28T11:38:51;-0.10;99.90
7648;DHT22;3866;48.020;11.720;2023-02-28T11:41:32;-0.20;99.90
7648;DHT22;3866;48.020;11.720;2023-02-28T11:44:22;-0.10;99.90
7648;DHT22;3866;48.020;11.720;2023-02-28T11:46:51;-0.10;99.90
7648;DHT22;3866;48.020;11.720;2023-02-28T11:49:29;-0.10;99.90
7648;DHT22;3866;48.020;11.720;2023-02-28T11:52:01;-0.30;99.90
7648;DHT22;3866;48.020;11.720;2023-02-28T11:54:54;-0.10;99.90
7648;DHT22;3866;48.020;11.720;2023-02-28T11:57:35;0.40;99.90
7648;DHT22;3866;48.020;11.720;2023-02-28T12:00:19;0.30;99.90
7648;DHT22;3866;48.020;11.720;2023-02-28T12:03:01;0.70;99.90
7648;DHT22;3866;48.020;11.720;2023-02-28T12:05:34;0.50;99.90
7648;DHT22;3866;48.020;11.720;2023-02-28T12:08:22;0.30;99.90
7648;DHT22;3866;48.020;11.720;2023-02-28T12:11:01;0.50;99.90
7648;DHT22;3866;48.020;11.720;2023-02-28T12:13:37;0.80;99.90
7648;DHT22;3866;48.020;11.720;2023-02-28T12:16:33;1.10;99.90
7648;DHT22;3866;48.020;11.720;2023-02-28T12:19:10;1.20;99.90
7648;DHT22;3866;48.020;11.720;2023-02-28T12:21:56;1.50;99.90
7648;DHT22;3866;48.020;11.720;2023-02-28T12:24:39;1.50;99.90
7648;DHT22;3866;48.020;11.720;2023-02-28T12:27:10;1.50;99.90
7648;DHT22;3866;48.020;11.720;2023-02-28T12:29:45;1.70;99.90
7648;DHT22;3866;48.020;11.720;2023-02-28T12:32:18;1.80;99.90
7648;DHT22;3866;48.020;11.720;2023-02-28T12:34:49;2.30;99.90
7648;DHT22;3866;48.020;11.720;2023-02-28T12:37:20;2.50;99.90
7648;DHT22;3866;48.020;11.720;2023-02-28T12:39:54;1.80;99.90
7648;DHT22;3866;48.020;11.720;2023-02-28T12:42:26;1.20;99.90
7648;DHT22;3866;48.020;11.720;2023-02-28T12:44:57;1.10;99.90
7648;DHT22;3866;48.020;11.720;2023-02-28T12:47:25;1.10;99.90
7648;DHT22;3866;48.020;11.720;2023-02-28T12:49:55;1.30;99.90
7648;DHT22;3866;48.020;11.720;2023-02-28T12:52:31;1.30;99.90
7648;DHT22;3866;48.020;11.720;2023-02-28T12:55:08;1.40;99.90
7648;DHT22;3866;48.020;11.720;2023-02-28T12:57:41;1.50;99.90
7648;DHT22;3866;48.020;11.720;2023-02-28T13:00:13;1.70;99.90
7648;DHT22;3866;48.020;11.720;2023-02-28T13:03:12;1.70;99.90
7648;DHT22;3866;48.020;11.720;2023-02-28T13:06:07;1.70;99.90
7648;DHT22;3866;48.020;11.720;2023-02-28T13:11:42;1.20;99.90
7648;DHT22;3866;48.020;11.720;2023-02-28T13:14:24;1.50;99.90
7648;DHT22;3866;48.020;11.720;2023-02-28T13:17:00;1.50;99.90
7648;DHT22;3866;48.020;11.720;2023-02-28T13:19:29;1.20;99.90
7648;DHT22;3866;48.020;11.720;2023-02-28T13:21:59;1.20;99.90
7648;DHT22;3866;48.020;11.720;2023-02-28T13:24:40;1.00;99.90
7648;DHT22;3866;48.020;11.720;2023-02-28T13:27:37;1.50;99.90
7648;DHT22;3866;48.020;11.720;2023-02-28T13:33:27;1.90;99.90
7648;DHT22;3866;48.020;11.720;2023-02-28T13:36:11;1.80;99.90
7648;DHT22;3866;48.020;11.720;2023-02-28T13:38:50;1.90;99.90
7648;DHT22;3866;48.020;11.720;2023-02-28T13:44:23;2.20;99.90
7648;DHT22;3866;48.020;11.720;2023-02-28T13:47:24;2.40;99.90
7648;DHT22;3866;48.020;11.720;2023-02-28T13:49:54;2.50;99.90
7648;DHT22;3866;48.020;11.720;2023-02-28T13:52:46;2.10;99.90
7648;DHT22;3866;48.020;11.720;2023-02-28T13:55:25;2.00;99.90
7648;DHT22;3866;48.020;11.720;2023-02-28T13:58:12;1.70;99.90
7648;DHT22;3866;48.020;11.720;2023-02-28T14:00:59;1.60;99.90
7648;DHT22;3866;48.020;11.720;2023-02-28T14:03:44;2.00;99.90
7648;DHT22;3866;48.020;11.720;2023-02-28T14:06:22;2.70;99.90
7648;DHT22;3866;48.020;11.720;2023-02-28T14:08:55;3.20;99.90
7648;DHT22;3866;48.020;11.720;2023-02-28T14:11:27;3.60;99.90
7648;DHT22;3866;48.020;11.720;2023-02-28T14:13:54;3.50;99.90
7648;DHT22;3866;48.020;11.720;2023-02-28T14:16:24;3.50;99.90
7648;DHT22;3866;48.020;11.720;2023-02-28T14:18:58;3.80;99.90
7648;DHT22;3866;48.020;11.720;2023-02-28T14:21:27;4.30;99.90
7648;DHT22;3866;48.020;11.720;2023-02-28T14:27:09;4.30;99.90
7648;DHT22;3866;48.020;11.720;2023-02-28T14:32:47;4.20;99.90
7648;DHT22;3866;48.020;11.720;2023-02-28T14:35:39;4.00;99.90
7648;DHT22;3866;48.020;11.720;2023-02-28T14:38:14;4.40;99.90
7648;DHT22;3866;48.020;11.720;2023-02-28T14:40:45;4.30;99.90
7648;DHT22;3866;48.020;11.720;2023-02-28T14:43:20;4.50;99.90
7648;DHT22;3866;48.020;11.720;2023-02-28T14:45:50;4.50;99.90
7648;DHT22;3866;48.020;11.720;2023-02-28T14:48:20;4.30;99.90
7648;DHT22;3866;48.020;11.720;2023-02-28T14:50:52;4.20;99.90
7648;DHT22;3866;48.020;11.720;2023-02-28T14:53:22;4.00;99.90
7648;DHT22;3866;48.020;11.720;2023-02-28T14:55:50;4.10;99.90
7648;DHT22;3866;48.020;11.720;2023-02-28T14:58:24;4.10;99.90
7648;DHT22;3866;48.020;11.720;2023-02-28T15:00:53;4.10;99.90
7648;DHT22;3866;48.020;11.720;2023-02-28T15:03:23;4.40;99.90
7648;DHT22;3866;48.020;11.720;2023-02-28T15:05:52;4.00;99.90
7648;DHT22;3866;48.020;11.720;2023-02-28T15:08:20;4.20;99.90
7648;DHT22;3866;48.020;11.720;2023-02-28T15:10:52;4.00;99.90
7648;DHT22;3866;48.020;11.720;2023-02-28T15:13:21;3.90;99.90
7648;DHT22;3866;48.020;11.720;2023-02-28T15:15:52;3.90;99.90
7648;DHT22;3866;48.020;11.720;2023-02-28T15:18:33;3.70;99.90
7648;DHT22;3866;48.020;11.720;2023-02-28T15:21:06;3.90;99.90
7648;DHT22;3866;48.020;11.720;2023-02-28T15:23:35;3.80;99.90
7648;DHT22;3866;48.020;11.720;2023-02-28T15:26:03;3.80;99.90
7648;DHT22;3866;48.020;11.720;2023-02-28T15:28:31;3.80;99.90
7648;DHT22;3866;48.020;11.720;2023-02-28T15:31:00;4.00;99.90
7648;DHT22;3866;48.020;11.720;2023-02-28T15:33:29;4.20;99.90
7648;DHT22;3866;48.020;11.720;2023-02-28T15:36:10;3.90;99.90
7648;DHT22;3866;48.020;11.720;2023-02-28T15:38:38;3.90;99.90
7648;DHT22;3866;48.020;11.720;2023-02-28T15:41:05;3.90;99.90
7648;DHT22;3866;48.020;11.720;2023-02-28T15:43:35;3.90;99.90
7648;DHT22;3866;48.020;11.720;2023-02-28T15:46:03;4.00;99.90
7648;DHT22;3866;48.020;11.720;2023-02-28T15:48:35;3.60;99.90
7648;DHT22;3866;48.020;11.720;2023-02-28T15:51:07;3.40;99.90
7648;DHT22;3866;48.020;11.720;2023-02-28T15:53:39;3.20;99.90
7648;DHT22;3866;48.020;11.720;2023-02-28T15:56:22;3.20;99.90
7648;DHT22;3866;48.020;11.720;2023-02-28T15:58:52;3.10;99.90
7648;DHT22;3866;48.020;11.720;2023-02-28T16:01:24;2.80;99.90
7648;DHT22;3866;48.020;11.720;2023-02-28T16:03:54;2.90;99.90
7648;DHT22;3866;48.020;11.720;2023-02-28T16:06:40;2.80;99.90
7648;DHT22;3866;48.020;11.720;2023-02-28T16:09:10;2.30;99.90
7648;DHT22;3866;48.020;11.720;2023-02-28T16:11:41;1.90;99.90
7648;DHT22;3866;48.020;11.720;2023-02-28T16:14:14;1.80;99.90
7648;DHT22;3866;48.020;11.720;2023-02-28T16:16:43;1.70;99.90
7648;DHT22;3866;48.020;11.720;2023-02-28T16:19:12;1.60;99.90
7648;DHT22;3866;48.020;11.720;2023-02-28T16:21:39;1.60;99.90
7648;DHT22;3866;48.020;11.720;2023-02-28T16:24:06;1.50;99.90
7648;DHT22;3866;48.020;11.720;2023-02-28T16:26:34;1.40;99.90
7648;DHT22;3866;48.020;11.720;2023-02-28T16:29:03;1.00;99.90
7648;DHT22;3866;48.020;11.720;2023-02-28T16:31:31;0.70;99.90
7648;DHT22;3866;48.020;11.720;2023-02-28T16:33:58;0.80;99.90
7648;DHT22;3866;48.020;11.720;2023-02-28T16:36:28;0.80;99.90